createdAt,value
2017-12-16T00:01:43.375Z,27.97
2017-12-16T00:04:15.856Z,33.63
2017-12-16T00:06:48.359Z,33.53
2017-12-16T00:09:20.843Z,32.37
2017-12-16T00:11:53.339Z,26.50
2017-12-16T00:14:25.912Z,34.73
2017-12-16T00:16:58.419Z,25.87
2017-12-16T00:19:30.909Z,35.63
2017-12-16T00:22:03.431Z,34.63
2017-12-16T00:24:35.920Z,29.37
2017-12-16T00:27:08.423Z,30.30
2017-12-16T00:29:40.909Z,33.83
2017-12-16T00:32:13.416Z,31.60
2017-12-16T00:34:45.891Z,32.03
2017-12-16T00:37:18.395Z,25.97
2017-12-16T00:39:50.888Z,24.03
2017-12-16T00:42:23.385Z,24.07
2017-12-16T00:44:55.855Z,32.20
2017-12-16T00:47:28.360Z,25.80
2017-12-16T00:50:00.855Z,27.67
2017-12-16T00:52:33.365Z,32.80
2017-12-16T00:55:05.853Z,33.23
2017-12-16T00:57:38.372Z,33.17
2017-12-16T01:00:10.870Z,33.13
2017-12-16T01:02:43.368Z,25.67
2017-12-16T01:05:15.854Z,25.43
2017-12-16T01:07:48.356Z,31.93
2017-12-16T01:10:20.868Z,25.87
2017-12-16T01:12:53.372Z,28.20
2017-12-16T01:15:25.872Z,26.97
2017-12-16T01:17:58.381Z,29.77
2017-12-16T01:20:30.859Z,26.37
2017-12-16T01:23:03.356Z,27.37
2017-12-16T01:25:35.827Z,24.50
2017-12-16T01:28:08.326Z,28.27
2017-12-16T01:30:41.817Z,29.37
2017-12-16T01:33:14.307Z,30.73
2017-12-16T01:35:58.600Z,33.10
2017-12-16T01:38:37.617Z,30.60
2017-12-16T01:41:10.095Z,33.33
2017-12-16T01:43:42.592Z,26.90
2017-12-16T01:46:15.076Z,32.13
2017-12-16T01:48:47.574Z,33.53
2017-12-16T01:51:20.056Z,33.50
2017-12-16T01:53:52.560Z,32.07
2017-12-16T01:56:25.087Z,32.83
2017-12-16T01:58:57.586Z,31.63
2017-12-16T02:01:30.067Z,28.40
2017-12-16T02:04:02.583Z,29.53
2017-12-16T02:06:35.064Z,25.60
2017-12-16T02:09:09.750Z,24.33
2017-12-16T02:11:42.282Z,34.00
2017-12-16T02:14:14.784Z,28.70
2017-12-16T02:16:47.276Z,27.30
2017-12-16T02:19:19.788Z,26.07
2017-12-16T02:21:52.275Z,27.00
2017-12-16T02:24:24.788Z,28.40
2017-12-16T02:26:57.371Z,33.43
2017-12-16T02:29:29.885Z,29.77
2017-12-16T02:32:02.370Z,35.93
2017-12-16T02:34:34.894Z,35.23
2017-12-16T02:37:10.231Z,30.77
2017-12-16T02:39:42.732Z,33.17
2017-12-16T02:42:15.238Z,36.13
2017-12-16T02:44:47.746Z,33.10
2017-12-16T02:47:20.319Z,55.20
2017-12-16T02:49:52.831Z,59.07
2017-12-16T02:52:25.330Z,58.83
2017-12-16T02:54:57.844Z,58.93
2017-12-16T02:57:30.334Z,70.83
2017-12-16T03:00:02.860Z,77.57
2017-12-16T03:02:35.358Z,60.13
2017-12-16T03:05:10.614Z,42.80
2017-12-16T03:07:43.192Z,56.83
2017-12-16T03:10:15.706Z,65.53
2017-12-16T03:12:48.191Z,62.70
2017-12-16T03:15:20.711Z,64.27
2017-12-16T03:17:53.197Z,49.43
2017-12-16T03:20:25.743Z,51.20
2017-12-16T03:22:58.223Z,57.20
2017-12-16T03:25:30.738Z,66.77
2017-12-16T03:28:03.225Z,43.13
2017-12-16T03:30:37.466Z,49.20
2017-12-16T03:33:09.952Z,44.43
2017-12-16T03:35:42.471Z,55.13
2017-12-16T03:38:14.951Z,48.77
2017-12-16T03:40:47.466Z,46.40
2017-12-16T03:43:19.963Z,48.20
2017-12-16T03:45:52.478Z,44.03
2017-12-16T03:48:24.973Z,53.10
2017-12-16T03:50:57.483Z,49.13
2017-12-16T03:53:29.965Z,45.30
2017-12-16T03:56:02.468Z,51.77
2017-12-16T03:58:34.950Z,46.53
2017-12-16T04:01:10.342Z,51.37
2017-12-16T04:03:42.832Z,45.47
2017-12-16T04:06:15.338Z,46.30
2017-12-16T04:08:47.809Z,45.97
2017-12-16T04:11:20.324Z,46.20
2017-12-16T04:13:52.816Z,41.33
2017-12-16T04:16:25.345Z,50.67
2017-12-16T04:18:57.836Z,41.70
2017-12-16T04:21:30.347Z,48.17
2017-12-16T04:24:02.835Z,44.87
2017-12-16T04:26:35.336Z,50.90
2017-12-16T04:29:10.762Z,43.03
2017-12-16T04:31:43.281Z,47.90
2017-12-16T04:34:15.762Z,48.57
2017-12-16T04:36:48.271Z,40.30
2017-12-16T04:39:20.756Z,48.40
2017-12-16T04:41:53.280Z,46.50
2017-12-16T04:44:25.776Z,45.77
2017-12-16T04:46:58.291Z,43.47
2017-12-16T04:49:30.776Z,47.23
2017-12-16T04:52:03.299Z,37.60
2017-12-16T04:54:37.512Z,38.13
2017-12-16T04:57:10.012Z,39.60
2017-12-16T04:59:42.503Z,45.00
2017-12-16T05:02:15.059Z,40.53
2017-12-16T05:04:47.519Z,45.27
2017-12-16T05:07:20.025Z,39.80
2017-12-16T05:09:52.506Z,40.80
2017-12-16T05:12:25.017Z,44.97
2017-12-16T05:14:57.493Z,37.27
2017-12-16T05:17:29.991Z,44.33
2017-12-16T05:20:02.521Z,44.47
2017-12-16T05:25:13.857Z,37.57
2017-12-16T05:27:46.350Z,36.87
2017-12-16T05:30:18.887Z,38.63
2017-12-16T05:32:51.362Z,37.97
2017-12-16T05:35:23.866Z,37.20
2017-12-16T05:37:56.385Z,35.67
2017-12-16T05:40:28.859Z,36.23
2017-12-16T05:43:01.380Z,39.77
2017-12-16T05:45:33.865Z,40.83
2017-12-16T05:48:08.525Z,42.67
2017-12-16T05:50:41.013Z,42.57
2017-12-16T05:53:13.506Z,37.83
2017-12-16T05:55:46.007Z,36.93
2017-12-16T05:58:18.503Z,33.33
2017-12-16T06:00:51.961Z,33.50
2017-12-16T06:03:24.476Z,38.17
2017-12-16T06:05:56.953Z,34.77
2017-12-16T06:08:29.461Z,36.53
2017-12-16T06:11:01.981Z,33.57
2017-12-16T06:13:34.488Z,33.83
2017-12-16T06:16:06.975Z,33.83
2017-12-16T06:18:39.488Z,31.03
2017-12-16T06:21:11.966Z,31.57
2017-12-16T06:23:44.495Z,32.53
2017-12-16T06:26:16.980Z,31.23
2017-12-16T06:28:49.483Z,32.93
2017-12-16T06:31:22.064Z,30.03
2017-12-16T06:33:54.589Z,29.03
2017-12-16T06:36:27.073Z,29.47
2017-12-16T06:38:59.576Z,29.73
2017-12-16T06:41:32.054Z,29.47
2017-12-16T06:44:04.555Z,28.87
2017-12-16T06:46:37.043Z,29.23
2017-12-16T06:49:09.541Z,28.20
2017-12-16T06:51:42.007Z,31.00
2017-12-16T06:54:14.516Z,34.57
2017-12-16T06:56:46.999Z,29.57
2017-12-16T06:59:19.503Z,28.97
2017-12-16T07:01:51.996Z,30.90
2017-12-16T07:04:24.496Z,29.97
2017-12-16T07:06:56.982Z,28.20
2017-12-16T07:09:29.474Z,29.40
2017-12-16T07:12:01.967Z,31.30
2017-12-16T07:14:34.483Z,29.93
2017-12-16T07:17:07.011Z,35.30
2017-12-16T07:19:39.613Z,29.50
2017-12-16T07:22:12.111Z,30.27
2017-12-16T07:24:44.631Z,30.67
2017-12-16T07:27:17.111Z,32.00
2017-12-16T07:29:49.684Z,31.73
2017-12-16T07:32:22.161Z,30.67
2017-12-16T07:34:54.663Z,32.90
2017-12-16T07:37:27.151Z,32.50
2017-12-16T07:39:59.658Z,35.57
2017-12-16T07:42:32.154Z,34.17
2017-12-16T07:45:04.651Z,32.37
2017-12-16T07:47:37.130Z,30.93
2017-12-16T07:50:09.622Z,34.63
2017-12-16T07:52:42.109Z,34.73
2017-12-16T07:55:14.610Z,33.37
2017-12-16T07:57:47.089Z,32.87
2017-12-16T08:00:19.598Z,32.27
2017-12-16T08:02:52.089Z,30.93
2017-12-16T08:05:24.588Z,28.80
2017-12-16T08:07:57.077Z,25.63
2017-12-16T08:10:29.580Z,26.80
2017-12-16T08:13:02.059Z,25.87
2017-12-16T08:15:34.576Z,26.17
2017-12-16T08:18:07.089Z,26.23
2017-12-16T08:20:39.584Z,25.73
2017-12-16T08:23:12.078Z,22.50
2017-12-16T08:25:44.580Z,21.03
2017-12-16T08:28:17.050Z,23.00
2017-12-16T08:30:49.563Z,21.30
2017-12-16T08:33:22.043Z,23.10
2017-12-16T08:35:54.555Z,20.70
2017-12-16T08:38:27.044Z,20.70
2017-12-16T08:40:59.562Z,20.87
2017-12-16T08:43:32.047Z,21.47
2017-12-16T08:46:04.551Z,19.67
2017-12-16T08:48:37.071Z,19.97
2017-12-16T08:51:09.594Z,18.87
2017-12-16T08:53:42.071Z,19.83
2017-12-16T08:56:14.570Z,20.40
2017-12-16T08:58:47.050Z,20.70
2017-12-16T09:01:19.567Z,21.57
2017-12-16T09:03:52.044Z,22.07
2017-12-16T09:06:24.548Z,23.77
2017-12-16T09:08:57.061Z,23.80
2017-12-16T09:11:29.568Z,21.67
2017-12-16T09:14:02.045Z,22.67
2017-12-16T09:16:34.548Z,21.57
2017-12-16T09:19:09.572Z,19.27
2017-12-16T09:21:42.065Z,19.37
2017-12-16T09:24:14.555Z,21.33
2017-12-16T09:26:47.065Z,22.27
2017-12-16T09:29:19.544Z,22.03
2017-12-16T09:31:52.046Z,22.90
2017-12-16T09:34:24.534Z,21.70
2017-12-16T09:36:57.038Z,25.17
2017-12-16T09:39:29.517Z,24.33
2017-12-16T09:42:02.018Z,27.57
2017-12-16T09:44:34.497Z,24.27
2017-12-16T09:47:09.378Z,23.00
2017-12-16T09:49:41.863Z,23.30
2017-12-16T09:52:14.441Z,23.37
2017-12-16T09:54:46.972Z,22.47
2017-12-16T09:57:19.486Z,22.30
2017-12-16T09:59:51.976Z,20.90
2017-12-16T10:02:24.548Z,20.87
2017-12-16T10:04:57.040Z,20.57
2017-12-16T10:07:29.550Z,19.97
2017-12-16T10:10:02.026Z,19.87
2017-12-16T10:12:34.538Z,20.80
2017-12-16T10:15:09.416Z,20.60
2017-12-16T10:17:41.924Z,19.77
2017-12-16T10:20:14.413Z,19.47
2017-12-16T10:22:46.917Z,17.90
2017-12-16T10:25:19.428Z,17.13
2017-12-16T10:27:51.935Z,18.57
2017-12-16T10:30:24.415Z,16.63
2017-12-16T10:32:56.925Z,18.40
2017-12-16T10:35:29.402Z,19.10
2017-12-16T10:38:01.925Z,16.50
2017-12-16T10:40:34.408Z,15.27
2017-12-16T10:43:09.280Z,15.47
2017-12-16T10:45:41.754Z,17.53
2017-12-16T10:48:14.262Z,17.80
2017-12-16T10:50:46.752Z,18.70
2017-12-16T10:53:19.243Z,15.10
2017-12-16T10:55:51.718Z,14.50
2017-12-16T10:58:24.208Z,15.17
2017-12-16T11:00:56.696Z,16.00
2017-12-16T11:03:29.198Z,12.63
2017-12-16T11:06:01.671Z,12.53
2017-12-16T11:08:34.181Z,12.07
2017-12-16T11:11:06.670Z,11.47
2017-12-16T11:13:39.173Z,14.27
2017-12-16T11:16:11.647Z,11.60
2017-12-16T11:18:44.206Z,10.50
2017-12-16T11:21:16.684Z,9.40
2017-12-16T11:23:49.232Z,9.93
2017-12-16T11:26:21.720Z,9.37
2017-12-16T11:28:54.241Z,9.20
2017-12-16T11:31:26.716Z,9.77
2017-12-16T11:33:59.212Z,9.10
2017-12-16T11:36:31.743Z,9.60
2017-12-16T11:39:04.254Z,9.47
2017-12-16T11:41:38.393Z,8.10
2017-12-16T11:44:10.916Z,8.73
2017-12-16T11:46:43.443Z,9.17
2017-12-16T11:49:15.945Z,8.80
2017-12-16T11:51:48.415Z,8.67
2017-12-16T11:54:20.917Z,9.03
2017-12-16T11:56:53.389Z,7.93
2017-12-16T11:59:25.892Z,8.53
2017-12-16T12:01:58.372Z,8.97
2017-12-16T12:04:30.889Z,9.23
2017-12-16T12:07:03.366Z,9.40
2017-12-16T12:09:35.870Z,8.87
2017-12-16T12:12:11.022Z,9.83
2017-12-16T12:14:43.518Z,9.13
2017-12-16T12:17:16.368Z,8.87
2017-12-16T12:19:48.873Z,9.07
2017-12-16T12:22:21.349Z,9.23
2017-12-16T12:24:53.858Z,7.60
2017-12-16T12:27:26.336Z,8.20
2017-12-16T12:29:58.843Z,7.83
2017-12-16T12:32:31.374Z,7.13
2017-12-16T12:35:03.841Z,7.53
2017-12-16T12:37:36.628Z,7.67
2017-12-16T12:40:09.141Z,7.23
2017-12-16T12:42:41.608Z,7.17
2017-12-16T12:45:14.191Z,8.07
2017-12-16T12:47:46.667Z,8.07
2017-12-16T12:50:19.168Z,8.00
2017-12-16T12:52:51.645Z,7.97
2017-12-16T12:55:24.156Z,8.63
2017-12-16T12:57:56.637Z,7.73
2017-12-16T13:00:29.132Z,8.73
2017-12-16T13:03:01.608Z,8.83
2017-12-16T13:05:34.119Z,11.17
2017-12-16T13:08:08.589Z,9.97
2017-12-16T13:10:41.290Z,10.07
2017-12-16T13:13:13.767Z,10.70
2017-12-16T13:15:46.272Z,10.53
2017-12-16T13:18:18.763Z,10.77
2017-12-16T13:20:51.277Z,10.57
2017-12-16T13:23:23.751Z,9.50
2017-12-16T13:25:56.265Z,9.87
2017-12-16T13:28:28.747Z,8.97
2017-12-16T13:31:01.249Z,8.60
2017-12-16T13:33:33.742Z,10.20
2017-12-16T13:36:06.833Z,8.50
2017-12-16T13:38:39.302Z,7.50
2017-12-16T13:41:11.807Z,8.57
2017-12-16T13:43:44.271Z,7.80
2017-12-16T13:46:16.768Z,6.00
2017-12-16T13:48:49.272Z,6.67
2017-12-16T13:51:21.801Z,7.60
2017-12-16T13:53:54.271Z,6.53
2017-12-16T13:56:26.792Z,7.63
2017-12-16T13:58:59.254Z,7.80
2017-12-16T14:01:31.742Z,8.40
2017-12-16T14:04:04.211Z,7.60
2017-12-16T14:06:36.761Z,7.90
2017-12-16T14:09:09.242Z,8.63
2017-12-16T14:11:41.739Z,8.50
2017-12-16T14:14:14.223Z,6.87
2017-12-16T14:16:47.572Z,6.67
2017-12-16T14:19:20.055Z,6.80
2017-12-16T14:21:52.547Z,6.60
2017-12-16T14:24:25.023Z,5.77
2017-12-16T14:26:57.527Z,5.83
2017-12-16T14:29:30.005Z,7.20
2017-12-16T14:32:02.501Z,6.23
2017-12-16T14:34:34.977Z,6.63
2017-12-16T14:37:07.467Z,6.20
2017-12-16T14:39:39.943Z,6.83
2017-12-16T14:42:12.438Z,5.93
2017-12-16T14:44:45.024Z,6.00
2017-12-16T14:47:17.514Z,5.57
2017-12-16T14:49:49.987Z,6.43
2017-12-16T14:52:22.526Z,6.00
2017-12-16T14:54:55.091Z,5.50
2017-12-16T14:57:27.604Z,6.80
2017-12-16T15:00:00.100Z,5.57
2017-12-16T15:02:32.586Z,5.87
2017-12-16T15:05:05.407Z,5.53
2017-12-16T15:07:39.119Z,5.70
2017-12-16T15:10:11.977Z,6.10
2017-12-16T15:12:44.853Z,5.93
2017-12-16T15:15:18.111Z,6.27
2017-12-16T15:17:50.619Z,6.30
2017-12-16T15:20:23.155Z,5.47
2017-12-16T15:22:55.656Z,5.73
2017-12-16T15:25:28.131Z,6.80
2017-12-16T15:28:00.630Z,7.20
2017-12-16T15:30:33.106Z,6.97
2017-12-16T15:33:05.609Z,7.73
2017-12-16T15:35:40.835Z,6.07
2017-12-16T15:38:13.375Z,6.67
2017-12-16T15:40:45.840Z,6.07
2017-12-16T15:43:18.741Z,7.50
2017-12-16T15:45:51.294Z,5.93
2017-12-16T15:48:23.793Z,5.70
2017-12-16T15:50:56.265Z,5.03
2017-12-16T15:53:30.615Z,5.20
2017-12-16T15:56:03.107Z,4.70
2017-12-16T15:58:35.600Z,4.33
2017-12-16T16:01:10.814Z,4.70
2017-12-16T16:03:43.319Z,4.30
2017-12-16T16:06:15.800Z,4.40
2017-12-16T16:08:48.296Z,3.80
2017-12-16T16:11:20.773Z,4.13
2017-12-16T16:13:53.295Z,4.10
2017-12-16T16:16:25.771Z,4.37
2017-12-16T16:18:58.265Z,4.30
2017-12-16T16:21:30.735Z,4.77
2017-12-16T16:24:03.219Z,4.13
2017-12-16T16:26:35.699Z,3.93
2017-12-16T16:29:11.985Z,4.73
2017-12-16T16:31:44.463Z,5.30
2017-12-16T16:34:16.966Z,4.50
2017-12-16T16:36:49.426Z,5.03
2017-12-16T16:39:21.930Z,9.17
2017-12-16T16:41:54.392Z,5.97
2017-12-16T16:44:26.897Z,6.73
2017-12-16T16:46:59.382Z,7.70
2017-12-16T16:49:31.888Z,9.40
2017-12-16T16:52:04.370Z,8.07
2017-12-16T16:54:38.929Z,8.63
2017-12-16T16:57:11.419Z,7.80
2017-12-16T16:59:43.948Z,6.93
2017-12-16T17:02:16.447Z,6.73
2017-12-16T17:04:48.952Z,7.90
2017-12-16T17:07:21.439Z,8.40
2017-12-16T17:09:53.951Z,6.70
2017-12-16T17:12:27.509Z,7.47
2017-12-16T17:15:00.005Z,7.43
2017-12-16T17:17:32.484Z,6.67
2017-12-16T17:20:05.009Z,7.07
2017-12-16T17:22:37.531Z,6.70
2017-12-16T17:25:10.024Z,6.63
2017-12-16T17:27:42.557Z,7.70
2017-12-16T17:30:15.215Z,6.63
2017-12-16T17:32:47.690Z,6.47
2017-12-16T17:35:20.198Z,6.37
2017-12-16T17:37:52.674Z,6.63
2017-12-16T17:40:25.171Z,6.20
2017-12-16T17:42:57.647Z,6.93
2017-12-16T17:45:30.164Z,6.77
2017-12-16T17:48:02.656Z,6.57
2017-12-16T17:50:35.159Z,6.57
2017-12-16T17:53:09.094Z,7.10
2017-12-16T17:55:41.627Z,6.90
2017-12-16T17:58:14.112Z,7.93
2017-12-16T18:00:46.609Z,7.10
2017-12-16T18:03:19.084Z,6.67
2017-12-16T18:05:51.649Z,8.37
2017-12-16T18:08:24.120Z,7.77
2017-12-16T18:10:56.643Z,6.37
2017-12-16T18:13:29.124Z,7.53
2017-12-16T18:16:01.628Z,6.37
2017-12-16T18:18:34.220Z,6.27
2017-12-16T18:21:08.839Z,6.40
2017-12-16T18:23:41.316Z,6.07
2017-12-16T18:26:14.056Z,6.77
2017-12-16T18:28:46.582Z,6.10
2017-12-16T18:31:19.220Z,6.13
2017-12-16T18:33:51.721Z,6.13
2017-12-16T18:36:24.313Z,6.20
2017-12-16T18:38:56.828Z,5.83
2017-12-16T18:41:29.321Z,6.13
2017-12-16T18:44:01.795Z,5.70
2017-12-16T18:46:34.317Z,6.20
2017-12-16T18:49:08.973Z,6.17
2017-12-16T18:51:41.479Z,5.90
2017-12-16T18:54:13.957Z,6.33
2017-12-16T18:56:46.465Z,5.90
2017-12-16T18:59:18.940Z,6.20
2017-12-16T19:01:51.432Z,6.03
2017-12-16T19:04:23.904Z,6.03
2017-12-16T19:06:56.399Z,5.90
2017-12-16T19:09:28.874Z,5.70
2017-12-16T19:12:01.621Z,6.27
2017-12-16T19:14:34.110Z,6.50
2017-12-16T19:17:08.748Z,6.57
2017-12-16T19:19:41.227Z,6.77
2017-12-16T19:22:13.746Z,5.80
2017-12-16T19:24:46.226Z,5.77
2017-12-16T19:27:18.722Z,6.27
2017-12-16T19:29:51.196Z,6.23
2017-12-16T19:32:23.718Z,5.90
2017-12-16T19:34:56.204Z,5.43
2017-12-16T19:37:28.707Z,6.30
2017-12-16T19:40:01.197Z,5.47
2017-12-16T19:42:33.694Z,5.90
2017-12-16T19:45:09.911Z,7.80
2017-12-16T19:47:42.452Z,7.00
2017-12-16T19:50:14.967Z,6.83
2017-12-16T19:52:47.463Z,6.33
2017-12-16T19:55:19.939Z,7.13
2017-12-16T19:57:52.437Z,8.00
2017-12-16T20:00:24.999Z,7.97
2017-12-16T20:02:57.519Z,6.37
2017-12-16T20:05:30.048Z,5.57
2017-12-16T20:08:02.573Z,6.20
2017-12-16T20:10:36.004Z,5.97
2017-12-16T20:13:10.066Z,6.23
2017-12-16T20:15:42.549Z,5.70
2017-12-16T20:18:15.052Z,5.90
2017-12-16T20:20:47.523Z,5.87
2017-12-16T20:23:20.891Z,5.70
2017-12-16T20:25:53.373Z,5.60
2017-12-16T20:28:25.879Z,5.60
2017-12-16T20:30:58.402Z,5.70
2017-12-16T20:33:30.970Z,4.87
2017-12-16T20:36:03.481Z,5.20
2017-12-16T20:38:35.983Z,5.50
2017-12-16T20:41:10.616Z,5.77
2017-12-16T20:43:43.110Z,5.43
2017-12-16T20:46:15.584Z,4.63
2017-12-16T20:48:48.110Z,5.00
2017-12-16T20:51:20.613Z,5.20
2017-12-16T20:53:53.133Z,4.53
2017-12-16T20:56:25.617Z,5.43
2017-12-16T20:58:58.111Z,4.67
2017-12-16T21:01:30.584Z,5.13
2017-12-16T21:04:03.082Z,4.97
2017-12-16T21:06:35.584Z,5.27
2017-12-16T21:09:08.117Z,4.70
2017-12-16T21:11:40.597Z,5.37
2017-12-16T21:14:13.094Z,5.40
2017-12-16T21:16:45.576Z,5.97
2017-12-16T21:19:18.081Z,4.70
2017-12-16T21:21:50.568Z,4.40
2017-12-16T21:24:23.081Z,3.83
2017-12-16T21:26:55.562Z,4.10
2017-12-16T21:29:28.074Z,3.70
2017-12-16T21:32:00.563Z,3.07
2017-12-16T21:34:33.085Z,3.20
2017-12-16T21:37:05.583Z,3.10
2017-12-16T21:39:40.495Z,2.67
2017-12-16T21:42:12.984Z,2.53
2017-12-16T21:44:45.500Z,2.77
2017-12-16T21:50:21.257Z,2.70
2017-12-16T21:52:53.760Z,2.60
2017-12-16T21:55:26.278Z,3.40
2017-12-16T21:57:58.759Z,3.70
2017-12-16T22:00:31.264Z,3.60
2017-12-16T22:03:03.756Z,4.03
2017-12-16T22:05:36.263Z,5.13
2017-12-16T22:08:08.755Z,5.37
2017-12-16T22:10:41.548Z,6.07
2017-12-16T22:13:14.036Z,6.10
2017-12-16T22:15:46.547Z,6.37
2017-12-16T22:18:19.060Z,6.70
2017-12-16T22:20:51.567Z,7.60
2017-12-16T22:23:24.065Z,6.67
2017-12-16T22:25:56.571Z,7.10
2017-12-16T22:28:29.127Z,7.20
2017-12-16T22:31:01.658Z,6.33
2017-12-16T22:33:34.197Z,6.77
2017-12-16T22:36:06.761Z,6.73
2017-12-16T22:38:39.246Z,7.40
2017-12-16T22:41:11.756Z,7.73
2017-12-16T22:43:44.289Z,7.00
2017-12-16T22:46:16.874Z,8.17
2017-12-16T22:48:49.386Z,7.40
2017-12-16T22:51:21.886Z,8.00
2017-12-16T22:53:54.373Z,8.87
2017-12-16T22:56:26.872Z,9.33
2017-12-16T22:58:59.366Z,9.43
2017-12-16T23:01:31.905Z,9.23
2017-12-16T23:04:04.389Z,9.40
2017-12-16T23:06:36.972Z,9.37
2017-12-16T23:09:09.476Z,9.23
2017-12-16T23:11:42.037Z,10.60
2017-12-16T23:14:14.523Z,9.63
2017-12-16T23:16:47.035Z,10.27
2017-12-16T23:19:19.514Z,9.23
2017-12-16T23:21:52.040Z,9.60
2017-12-16T23:24:24.534Z,8.93
2017-12-16T23:26:57.036Z,9.63
2017-12-16T23:29:29.521Z,9.20
2017-12-16T23:32:02.060Z,9.70
2017-12-16T23:34:34.588Z,10.40
2017-12-16T23:37:07.140Z,9.93
2017-12-16T23:39:39.631Z,10.23
2017-12-16T23:42:12.137Z,8.87
2017-12-16T23:44:44.610Z,8.37
2017-12-16T23:47:17.105Z,7.50
2017-12-16T23:49:49.578Z,7.13
2017-12-16T23:52:22.072Z,7.10
2017-12-16T23:54:54.543Z,7.17
2017-12-16T23:57:27.052Z,5.83
2017-12-16T23:59:59.538Z,6.30
